Time;durP1;ratioP1;P1;durP2;ratioP2;P2;SDS_P1;SDS_P2;PMS_P1;PMS_P2;Temp;Humidity;BMP_temperature;BMP_pressure;BME280_temperature;BME280_humidity;BME280_pressure;Samples;Min_cycle;Max_cycle;Signal;HPM_P1;HPM_P2
2024/01/29 00:00:16;;;;;;;;;;;5.60;99.90;;;;;;4957629;28;19926;-68
2024/01/29 00:02:43;;;;;;;;;;;5.60;99.90;;;;;;4931279;28;19932;-68
2024/01/29 00:05:09;;;;;;;;;;;5.60;99.90;;;;;;4961140;28;19932;-68
2024/01/29 00:07:35;;;;;;;;;;;5.60;99.90;;;;;;4940375;28;19925;-69
2024/01/29 00:10:00;;;;;;;;;;;5.60;99.90;;;;;;4961185;28;20409;-69
2024/01/29 00:12:26;;;;;;;;;;;5.60;99.90;;;;;;4932123;28;19925;-68
2024/01/29 00:14:52;;;;;;;;;;;5.50;99.90;;;;;;4959490;28;19926;-68
2024/01/29 00:17:18;;;;;;;;;;;5.60;99.90;;;;;;4933148;28;19958;-68
2024/01/29 00:19:44;;;;;;;;;;;5.50;99.90;;;;;;4956099;28;19929;-66
2024/01/29 00:22:10;;;;;;;;;;;5.50;99.90;;;;;;4929094;28;19925;-69
2024/01/29 00:24:36;;;;;;;;;;;5.50;99.90;;;;;;4961280;28;21068;-69
2024/01/29 00:27:02;;;;;;;;;;;5.50;99.90;;;;;;4932818;28;20590;-68
2024/01/29 00:29:28;;;;;;;;;;;5.50;99.90;;;;;;4959294;28;19940;-69
2024/01/29 00:31:53;;;;;;;;;;;5.50;99.90;;;;;;4930585;28;19934;-69
2024/01/29 00:34:20;;;;;;;;;;;5.40;99.90;;;;;;4954986;28;19925;-68
2024/01/29 00:36:46;;;;;;;;;;;5.40;99.90;;;;;;4943731;28;19929;-68
2024/01/29 00:39:13;;;;;;;;;;;5.50;99.90;;;;;;4969204;28;19925;-68
2024/01/29 00:41:39;;;;;;;;;;;5.40;99.90;;;;;;4945181;28;19931;-69
2024/01/29 00:44:05;;;;;;;;;;;5.40;99.90;;;;;;4972083;28;20679;-68
2024/01/29 00:46:31;;;;;;;;;;;5.40;99.90;;;;;;4950639;28;20267;-69
2024/01/29 00:48:56;;;;;;;;;;;5.40;99.90;;;;;;4962464;28;19969;-68
2024/01/29 00:51:22;;;;;;;;;;;5.30;99.90;;;;;;4931656;28;19926;-67
2024/01/29 00:53:48;;;;;;;;;;;5.30;99.90;;;;;;4961216;28;19933;-68
2024/01/29 00:56:14;;;;;;;;;;;5.30;99.90;;;;;;4938948;28;20347;-68
2024/01/29 00:58:43;;;;;;;;;;;5.30;99.90;;;;;;4975343;28;19925;-68
2024/01/29 01:01:09;;;;;;;;;;;5.30;99.90;;;;;;4936870;28;19928;-68
2024/01/29 01:03:35;;;;;;;;;;;5.30;99.90;;;;;;4972548;28;19926;-69
2024/01/29 01:06:01;;;;;;;;;;;5.20;99.90;;;;;;4933639;28;19936;-69
2024/01/29 01:08:27;;;;;;;;;;;5.20;99.90;;;;;;4959864;28;21026;-69
2024/01/29 01:10:52;;;;;;;;;;;5.20;99.90;;;;;;4931879;28;19938;-69
2024/01/29 01:13:18;;;;;;;;;;;5.20;99.90;;;;;;4960334;28;20417;-70
2024/01/29 01:15:44;;;;;;;;;;;5.10;99.90;;;;;;4932324;28;19926;-71
2024/01/29 01:18:10;;;;;;;;;;;5.20;99.90;;;;;;4978728;28;20009;-70
2024/01/29 01:20:36;;;;;;;;;;;5.10;99.90;;;;;;4947084;28;19925;-68
2024/01/29 01:23:02;;;;;;;;;;;5.20;99.90;;;;;;4966880;28;19925;-69
2024/01/29 01:25:28;;;;;;;;;;;5.10;99.90;;;;;;4956312;28;19929;-68
2024/01/29 01:27:54;;;;;;;;;;;5.10;99.90;;;;;;4925481;28;19925;-68
2024/01/29 01:30:21;;;;;;;;;;;5.10;99.90;;;;;;4959899;28;19925;-68
2024/01/29 01:32:47;;;;;;;;;;;5.10;99.90;;;;;;4954550;28;20004;-68
2024/01/29 01:35:13;;;;;;;;;;;5.10;99.90;;;;;;4958787;28;19925;-68
2024/01/29 01:37:39;;;;;;;;;;;5.00;99.90;;;;;;4932458;28;19932;-68
2024/01/29 01:40:05;;;;;;;;;;;5.00;99.90;;;;;;4959328;28;20427;-69
2024/01/29 01:42:31;;;;;;;;;;;5.00;99.90;;;;;;4951269;28;19929;-68
2024/01/29 01:44:57;;;;;;;;;;;4.90;99.90;;;;;;4961018;28;20474;-69
2024/01/29 01:47:23;;;;;;;;;;;5.00;99.90;;;;;;4948061;28;20419;-69
2024/01/29 01:49:49;;;;;;;;;;;4.90;99.90;;;;;;4960311;28;19930;-68
2024/01/29 01:52:15;;;;;;;;;;;4.90;99.90;;;;;;4948638;28;20593;-69
2024/01/29 01:54:42;;;;;;;;;;;4.90;99.90;;;;;;4963184;28;19932;-68
2024/01/29 01:57:08;;;;;;;;;;;4.90;99.90;;;;;;4931238;28;19926;-68
2024/01/29 01:59:35;;;;;;;;;;;4.90;99.90;;;;;;4961037;28;19926;-68
2024/01/29 02:02:01;;;;;;;;;;;4.80;99.90;;;;;;4931832;28;19926;-68
2024/01/29 02:04:27;;;;;;;;;;;4.70;99.90;;;;;;4953234;28;20979;-69
2024/01/29 02:06:53;;;;;;;;;;;4.70;99.90;;;;;;4932647;28;19926;-69
2024/01/29 02:09:19;;;;;;;;;;;4.70;99.90;;;;;;4952443;28;19930;-69
2024/01/29 02:11:45;;;;;;;;;;;4.60;99.90;;;;;;4934424;28;19939;-71
2024/01/29 02:14:11;;;;;;;;;;;4.60;99.90;;;;;;4969505;28;19925;-69
2024/01/29 02:16:37;;;;;;;;;;;4.50;99.90;;;;;;4940861;28;19940;-69
2024/01/29 02:19:07;;;;;;;;;;;4.50;99.90;;;;;;4971360;28;19932;-68
2024/01/29 02:21:33;;;;;;;;;;;4.40;99.90;;;;;;4931059;28;19925;-68
2024/01/29 02:23:59;;;;;;;;;;;4.40;99.90;;;;;;4961060;28;19932;-68
2024/01/29 02:26:25;;;;;;;;;;;4.40;99.90;;;;;;4931223;28;20770;-68
2024/01/29 02:28:51;;;;;;;;;;;4.40;99.90;;;;;;4946747;28;19952;-69
2024/01/29 02:31:17;;;;;;;;;;;4.40;99.90;;;;;;4927629;28;19937;-68
2024/01/29 02:33:43;;;;;;;;;;;4.30;99.90;;;;;;4957026;28;19937;-68
2024/01/29 02:36:09;;;;;;;;;;;4.40;99.90;;;;;;4939907;28;19925;-69
2024/01/29 02:38:35;;;;;;;;;;;4.40;99.90;;;;;;4979388;28;20978;-69
2024/01/29 02:41:01;;;;;;;;;;;4.40;99.90;;;;;;4932555;28;19933;-69
2024/01/29 02:43:26;;;;;;;;;;;4.40;99.90;;;;;;4949591;28;19934;-69
2024/01/29 02:45:52;;;;;;;;;;;4.40;99.90;;;;;;4937416;28;19934;-68
2024/01/29 02:48:18;;;;;;;;;;;4.40;99.90;;;;;;4982170;28;19936;-69
2024/01/29 02:50:44;;;;;;;;;;;4.30;99.90;;;;;;4931794;28;21116;-68
2024/01/29 02:53:10;;;;;;;;;;;4.30;99.90;;;;;;4980248;28;19929;-68
2024/01/29 02:55:36;;;;;;;;;;;4.30;99.90;;;;;;4950622;28;19936;-68
2024/01/29 02:58:02;;;;;;;;;;;4.30;99.90;;;;;;4940486;28;19940;-68
2024/01/29 03:00:28;;;;;;;;;;;4.30;99.90;;;;;;4958632;28;20215;-71
2024/01/29 03:02:57;;;;;;;;;;;4.20;99.90;;;;;;4956653;28;20871;-68
2024/01/29 03:05:23;;;;;;;;;;;4.10;99.90;;;;;;4962177;28;20439;-68
2024/01/29 03:07:48;;;;;;;;;;;4.10;99.90;;;;;;4915624;28;19933;-69
2024/01/29 03:10:14;;;;;;;;;;;4.10;99.90;;;;;;4963080;28;20508;-69
2024/01/29 03:12:40;;;;;;;;;;;4.00;99.90;;;;;;4955433;28;19925;-69
2024/01/29 03:15:06;;;;;;;;;;;4.00;99.90;;;;;;4959212;28;20024;-69
2024/01/29 03:17:32;;;;;;;;;;;4.00;99.90;;;;;;4931337;28;20069;-70
2024/01/29 03:19:58;;;;;;;;;;;4.00;99.90;;;;;;4960829;28;19925;-68
2024/01/29 03:22:24;;;;;;;;;;;4.00;99.90;;;;;;4950898;28;21003;-68
2024/01/29 03:24:50;;;;;;;;;;;4.00;99.90;;;;;;4965107;28;19932;-69
2024/01/29 03:27:16;;;;;;;;;;;4.00;99.90;;;;;;4933852;28;19926;-69
2024/01/29 03:29:42;;;;;;;;;;;4.00;99.90;;;;;;4960592;28;20320;-69
2024/01/29 03:32:09;;;;;;;;;;;3.90;99.90;;;;;;4949242;28;19936;-69
2024/01/29 03:34:35;;;;;;;;;;;3.90;99.90;;;;;;4965777;28;19929;-69
2024/01/29 03:37:02;;;;;;;;;;;3.90;99.90;;;;;;4934642;28;20146;-69
2024/01/29 03:39:28;;;;;;;;;;;3.90;99.90;;;;;;4954105;28;20468;-69
2024/01/29 03:41:54;;;;;;;;;;;3.80;99.90;;;;;;4939381;28;20002;-69
2024/01/29 03:44:20;;;;;;;;;;;3.80;99.90;;;;;;4959624;28;19925;-69
2024/01/29 03:46:47;;;;;;;;;;;3.80;99.90;;;;;;4924293;28;19925;-69
2024/01/29 03:49:12;;;;;;;;;;;3.80;99.90;;;;;;4959305;28;19929;-69
2024/01/29 03:51:38;;;;;;;;;;;3.70;99.90;;;;;;4932345;28;19925;-69
2024/01/29 03:54:04;;;;;;;;;;;3.80;99.90;;;;;;4959077;28;20415;-68
2024/01/29 03:56:30;;;;;;;;;;;3.70;99.90;;;;;;4943717;28;19929;-69
2024/01/29 03:58:56;;;;;;;;;;;3.70;99.90;;;;;;4973285;28;19925;-69
2024/01/29 04:01:27;;;;;;;;;;;3.70;99.90;;;;;;4940869;28;20421;-68
2024/01/29 04:03:53;;;;;;;;;;;3.70;99.90;;;;;;4962603;28;19925;-68
2024/01/29 04:06:19;;;;;;;;;;;3.70;99.90;;;;;;4932049;28;19925;-68
2024/01/29 04:08:45;;;;;;;;;;;3.80;99.90;;;;;;4975645;28;20031;-68
2024/01/29 04:11:11;;;;;;;;;;;3.70;99.90;;;;;;4929650;28;19925;-69
2024/01/29 04:13:39;;;;;;;;;;;3.80;99.90;;;;;;4963455;28;21071;-68
2024/01/29 04:16:08;;;;;;;;;;;3.80;99.90;;;;;;4930723;28;20506;-68
2024/01/29 04:18:34;;;;;;;;;;;3.80;99.90;;;;;;4961999;28;19925;-69
2024/01/29 04:20:59;;;;;;;;;;;3.80;99.90;;;;;;4930973;28;19925;-69
2024/01/29 04:23:25;;;;;;;;;;;3.80;99.90;;;;;;4944989;28;19925;-69
2024/01/29 04:25:51;;;;;;;;;;;3.80;99.90;;;;;;4932410;28;19931;-70
2024/01/29 04:28:17;;;;;;;;;;;3.80;99.90;;;;;;4962929;28;19937;-67
2024/01/29 04:30:43;;;;;;;;;;;3.80;99.90;;;;;;4947098;28;19936;-66
2024/01/29 04:33:09;;;;;;;;;;;3.80;99.90;;;;;;4946694;28;19925;-67
2024/01/29 04:35:35;;;;;;;;;;;3.90;99.90;;;;;;4949633;28;19925;-66
2024/01/29 04:38:01;;;;;;;;;;;3.80;99.90;;;;;;4909795;28;19930;-68
2024/01/29 04:40:27;;;;;;;;;;;3.80;99.90;;;;;;4942000;28;19932;-66
2024/01/29 04:42:53;;;;;;;;;;;3.80;99.90;;;;;;4932487;28;19925;-66
2024/01/29 04:45:19;;;;;;;;;;;3.70;99.90;;;;;;4935044;28;19937;-66
2024/01/29 04:47:45;;;;;;;;;;;3.70;99.90;;;;;;4942323;28;20570;-65
2024/01/29 04:50:11;;;;;;;;;;;3.70;99.90;;;;;;4961607;28;19933;-65
2024/01/29 04:52:37;;;;;;;;;;;3.70;99.90;;;;;;4944540;28;19929;-66
2024/01/29 04:55:03;;;;;;;;;;;3.70;99.90;;;;;;4956287;28;20892;-65
2024/01/29 04:57:29;;;;;;;;;;;3.60;99.90;;;;;;4934637;28;20000;-66
2024/01/29 04:59:55;;;;;;;;;;;3.60;99.90;;;;;;4941827;28;19926;-66
2024/01/29 05:02:21;;;;;;;;;;;3.60;99.90;;;;;;4909832;28;19925;-67
2024/01/29 05:04:47;;;;;;;;;;;3.60;99.90;;;;;;4943641;28;19937;-65
2024/01/29 05:07:13;;;;;;;;;;;3.60;99.90;;;;;;4936087;28;19925;-65
2024/01/29 05:09:39;;;;;;;;;;;3.60;99.90;;;;;;4963355;28;19930;-65
2024/01/29 05:12:06;;;;;;;;;;;3.60;99.90;;;;;;4928542;28;19925;-65
2024/01/29 05:14:32;;;;;;;;;;;3.60;99.90;;;;;;4959646;28;19933;-66
2024/01/29 05:16:58;;;;;;;;;;;3.60;99.90;;;;;;4921555;28;19929;-66
2024/01/29 05:19:24;;;;;;;;;;;3.50;99.90;;;;;;4959190;28;20029;-66
2024/01/29 05:21:50;;;;;;;;;;;3.50;99.90;;;;;;4926067;28;19925;-66
2024/01/29 05:24:16;;;;;;;;;;;3.50;99.90;;;;;;4949700;28;20468;-66
2024/01/29 05:26:42;;;;;;;;;;;3.50;99.90;;;;;;4919918;28;19932;-66
2024/01/29 05:29:08;;;;;;;;;;;3.50;99.90;;;;;;4957944;28;19941;-66
2024/01/29 05:31:34;;;;;;;;;;;3.50;99.90;;;;;;4939319;28;19958;-67
2024/01/29 05:33:59;;;;;;;;;;;3.50;99.90;;;;;;4971048;28;20020;-67
2024/01/29 05:36:25;;;;;;;;;;;3.50;99.90;;;;;;4939895;28;19924;-69
2024/01/29 05:38:51;;;;;;;;;;;3.50;99.90;;;;;;4972195;28;20083;-67
2024/01/29 05:41:17;;;;;;;;;;;3.50;99.90;;;;;;4938982;28;19936;-65
2024/01/29 05:43:43;;;;;;;;;;;3.50;99.90;;;;;;4964262;28;21267;-67
2024/01/29 05:46:09;;;;;;;;;;;3.50;99.90;;;;;;4930116;28;21204;-65
2024/01/29 05:48:35;;;;;;;;;;;3.50;99.90;;;;;;4947902;28;20075;-65
2024/01/29 05:51:01;;;;;;;;;;;3.50;99.90;;;;;;4931133;28;19931;-66
2024/01/29 05:53:27;;;;;;;;;;;3.50;99.90;;;;;;4947305;28;19926;-66
2024/01/29 05:55:53;;;;;;;;;;;3.60;99.90;;;;;;4931781;28;19930;-66
2024/01/29 05:58:19;;;;;;;;;;;3.50;99.90;;;;;;4977819;28;19925;-66
2024/01/29 06:00:45;;;;;;;;;;;3.50;99.90;;;;;;4931145;28;19936;-66
2024/01/29 06:03:12;;;;;;;;;;;3.60;99.90;;;;;;4962704;28;20650;-66
2024/01/29 06:05:38;;;;;;;;;;;3.50;99.90;;;;;;4940842;28;19925;-65
2024/01/29 06:08:04;;;;;;;;;;;3.60;99.90;;;;;;4951792;28;19926;-65
2024/01/29 06:10:30;;;;;;;;;;;3.50;99.90;;;;;;4960626;28;19936;-66
2024/01/29 06:12:55;;;;;;;;;;;3.60;99.90;;;;;;4939650;28;20418;-66
2024/01/29 06:15:21;;;;;;;;;;;3.60;99.90;;;;;;4962516;28;19925;-66
2024/01/29 06:17:47;;;;;;;;;;;3.60;99.90;;;;;;4934109;28;19926;-66
2024/01/29 06:20:13;;;;;;;;;;;3.60;99.90;;;;;;4965666;28;19925;-66
2024/01/29 06:22:39;;;;;;;;;;;3.60;99.90;;;;;;4951764;28;21515;-66
2024/01/29 06:25:05;;;;;;;;;;;3.60;99.90;;;;;;4965145;28;20420;-66
2024/01/29 06:27:31;;;;;;;;;;;3.60;99.90;;;;;;4937694;28;19925;-66
2024/01/29 06:29:57;;;;;;;;;;;3.60;99.90;;;;;;4965211;28;19955;-66
2024/01/29 06:32:23;;;;;;;;;;;3.60;99.90;;;;;;4937086;28;19929;-66
2024/01/29 06:34:56;;;;;;;;;;;3.50;99.90;;;;;;4966704;28;19929;-66
2024/01/29 06:37:23;;;;;;;;;;;3.50;99.90;;;;;;4914244;28;19940;-66
2024/01/29 06:39:49;;;;;;;;;;;3.50;99.90;;;;;;4965114;28;19930;-66
2024/01/29 06:42:15;;;;;;;;;;;3.50;99.90;;;;;;4934946;28;19997;-67
2024/01/29 06:44:41;;;;;;;;;;;3.50;99.90;;;;;;4961489;28;19930;-66
2024/01/29 06:47:07;;;;;;;;;;;3.50;99.90;;;;;;4944393;28;19936;-65
2024/01/29 06:49:35;;;;;;;;;;;3.50;99.90;;;;;;4966627;28;20722;-66
2024/01/29 06:52:01;;;;;;;;;;;3.50;99.90;;;;;;4956434;28;19932;-66
2024/01/29 06:54:26;;;;;;;;;;;3.50;99.90;;;;;;4967284;28;19949;-66
2024/01/29 06:56:53;;;;;;;;;;;3.60;99.90;;;;;;4945405;28;20407;-66
2024/01/29 06:59:19;;;;;;;;;;;3.60;99.90;;;;;;4970685;28;20609;-66
2024/01/29 07:01:45;;;;;;;;;;;3.50;99.90;;;;;;4935142;28;20479;-67
2024/01/29 07:04:11;;;;;;;;;;;3.60;99.90;;;;;;4963042;28;19925;-66
2024/01/29 07:06:37;;;;;;;;;;;3.60;99.90;;;;;;4945830;28;19925;-66
2024/01/29 07:09:03;;;;;;;;;;;3.60;99.90;;;;;;4976146;28;19933;-67
2024/01/29 07:11:29;;;;;;;;;;;3.60;99.90;;;;;;4937951;28;20407;-66
2024/01/29 07:13:54;;;;;;;;;;;3.60;99.90;;;;;;4974154;28;19932;-66
2024/01/29 07:16:20;;;;;;;;;;;3.60;99.90;;;;;;4941906;28;20434;-67
2024/01/29 07:18:46;;;;;;;;;;;3.70;99.90;;;;;;4976385;28;19932;-67
2024/01/29 07:21:12;;;;;;;;;;;3.70;99.90;;;;;;4930228;28;19926;-68
2024/01/29 07:23:38;;;;;;;;;;;3.70;99.90;;;;;;4965273;28;20523;-67
2024/01/29 07:26:04;;;;;;;;;;;3.70;99.90;;;;;;4934467;28;19929;-66
2024/01/29 07:28:31;;;;;;;;;;;3.70;99.90;;;;;;4935438;28;20920;-66
2024/01/29 07:30:57;;;;;;;;;;;3.70;99.90;;;;;;4934748;28;19937;-67
2024/01/29 07:33:23;;;;;;;;;;;3.80;99.90;;;;;;4969900;28;19932;-66
2024/01/29 07:35:49;;;;;;;;;;;3.80;99.90;;;;;;4935615;28;20399;-67
2024/01/29 07:38:15;;;;;;;;;;;3.80;99.90;;;;;;4980320;28;19925;-68
2024/01/29 07:40:41;;;;;;;;;;;3.90;99.90;;;;;;4936231;28;19932;-66
2024/01/29 07:43:07;;;;;;;;;;;3.90;99.90;;;;;;4984394;28;19932;-67
2024/01/29 07:45:33;;;;;;;;;;;4.00;99.90;;;;;;4960388;28;19925;-67
2024/01/29 07:48:00;;;;;;;;;;;4.00;99.90;;;;;;4950064;28;19937;-66
2024/01/29 07:50:26;;;;;;;;;;;4.00;99.90;;;;;;4963280;28;19940;-67
2024/01/29 07:52:51;;;;;;;;;;;4.10;99.90;;;;;;4936542;28;20035;-67
2024/01/29 07:55:18;;;;;;;;;;;4.10;99.90;;;;;;4962974;28;19925;-67
2024/01/29 07:57:44;;;;;;;;;;;4.10;99.90;;;;;;4957388;28;19979;-66
2024/01/29 08:00:10;;;;;;;;;;;4.10;99.90;;;;;;4962100;28;20982;-68
2024/01/29 08:02:36;;;;;;;;;;;4.20;99.90;;;;;;4956619;28;19925;-67
2024/01/29 08:05:02;;;;;;;;;;;4.20;99.90;;;;;;4964053;28;20421;-66
2024/01/29 08:07:28;;;;;;;;;;;4.30;99.90;;;;;;4957601;28;19936;-66
2024/01/29 08:09:54;;;;;;;;;;;4.30;99.90;;;;;;4964754;28;19929;-66
2024/01/29 08:12:20;;;;;;;;;;;4.30;99.90;;;;;;4953867;28;19933;-66
2024/01/29 08:14:47;;;;;;;;;;;4.40;99.90;;;;;;4965867;28;19964;-67
2024/01/29 08:17:13;;;;;;;;;;;4.40;99.90;;;;;;4934643;28;19925;-66
2024/01/29 08:19:39;;;;;;;;;;;4.40;99.90;;;;;;4959853;28;19925;-67
2024/01/29 08:22:05;;;;;;;;;;;4.40;99.90;;;;;;4957461;28;20021;-68
2024/01/29 08:24:31;;;;;;;;;;;4.50;99.90;;;;;;4967080;28;19932;-67
2024/01/29 08:26:57;;;;;;;;;;;4.50;99.90;;;;;;4939440;28;19924;-66
2024/01/29 08:29:23;;;;;;;;;;;4.60;99.90;;;;;;4970236;28;19936;-67
2024/01/29 08:31:49;;;;;;;;;;;4.70;99.90;;;;;;4946033;28;19931;-66
2024/01/29 08:34:14;;;;;;;;;;;4.70;99.90;;;;;;4971252;28;19926;-68
2024/01/29 08:36:40;;;;;;;;;;;4.80;99.90;;;;;;4945210;28;19936;-68
2024/01/29 08:39:06;;;;;;;;;;;4.80;99.90;;;;;;4974072;28;19982;-68
2024/01/29 08:41:32;;;;;;;;;;;4.80;99.90;;;;;;4942273;28;19925;-67
2024/01/29 08:43:58;;;;;;;;;;;4.90;99.90;;;;;;4965310;28;19926;-68
2024/01/29 08:46:24;;;;;;;;;;;5.00;99.90;;;;;;4912202;28;19932;-66
2024/01/29 08:48:50;;;;;;;;;;;5.00;99.90;;;;;;4965576;28;20620;-67
2024/01/29 08:51:17;;;;;;;;;;;5.10;99.90;;;;;;4938814;28;19935;-66
2024/01/29 08:53:43;;;;;;;;;;;5.10;99.90;;;;;;4949849;28;19930;-67
2024/01/29 08:56:09;;;;;;;;;;;5.20;99.90;;;;;;4930523;28;19932;-67
2024/01/29 08:58:36;;;;;;;;;;;5.20;99.90;;;;;;4964802;28;19926;-67
2024/01/29 09:01:02;;;;;;;;;;;5.30;99.90;;;;;;4937953;28;19925;-66
2024/01/29 09:03:28;;;;;;;;;;;5.30;99.90;;;;;;4966579;28;19938;-68
2024/01/29 09:05:54;;;;;;;;;;;5.40;99.90;;;;;;4936925;28;19937;-68
2024/01/29 09:08:23;;;;;;;;;;;5.40;99.90;;;;;;4981141;28;19933;-67
2024/01/29 09:10:49;;;;;;;;;;;5.40;99.90;;;;;;4932757;28;20446;-67
2024/01/29 09:13:15;;;;;;;;;;;5.50;99.90;;;;;;4949369;28;19925;-67
2024/01/29 09:15:41;;;;;;;;;;;5.50;99.90;;;;;;4932018;28;19932;-67
2024/01/29 09:18:07;;;;;;;;;;;5.50;99.90;;;;;;4983029;28;21429;-67
2024/01/29 09:20:33;;;;;;;;;;;5.60;99.90;;;;;;4958763;28;19956;-67
2024/01/29 09:22:59;;;;;;;;;;;5.70;99.90;;;;;;4940190;28;19924;-67
2024/01/29 09:25:25;;;;;;;;;;;5.70;99.90;;;;;;4962684;28;19926;-68
2024/01/29 09:27:51;;;;;;;;;;;5.80;99.90;;;;;;4933469;28;19929;-67
2024/01/29 09:30:17;;;;;;;;;;;5.80;99.90;;;;;;4961249;28;19940;-66
2024/01/29 09:32:42;;;;;;;;;;;5.90;99.90;;;;;;4936035;28;20588;-68
2024/01/29 09:35:09;;;;;;;;;;;6.00;99.90;;;;;;4958336;28;19932;-67
2024/01/29 09:37:36;;;;;;;;;;;6.00;99.90;;;;;;4932886;28;20757;-67
2024/01/29 09:40:03;;;;;;;;;;;6.10;99.90;;;;;;4962893;28;19926;-67
2024/01/29 09:42:30;;;;;;;;;;;6.10;99.90;;;;;;4953542;28;19955;-67
2024/01/29 09:44:58;;;;;;;;;;;6.20;99.90;;;;;;4961022;28;19936;-67
2024/01/29 09:47:25;;;;;;;;;;;6.20;99.90;;;;;;4934366;28;19926;-68
2024/01/29 09:49:50;;;;;;;;;;;6.30;99.90;;;;;;4961378;28;19933;-68
2024/01/29 09:52:17;;;;;;;;;;;6.30;99.90;;;;;;4951533;28;19924;-68
2024/01/29 09:54:45;;;;;;;;;;;6.40;99.90;;;;;;4964423;28;20017;-68
2024/01/29 09:57:12;;;;;;;;;;;6.40;99.90;;;;;;4930720;28;19930;-67
2024/01/29 09:59:38;;;;;;;;;;;6.40;99.90;;;;;;4964309;28;19993;-69
2024/01/29 10:02:04;;;;;;;;;;;6.40;99.90;;;;;;4924101;28;19925;-66
2024/01/29 10:04:30;;;;;;;;;;;6.40;99.90;;;;;;4956471;28;20605;-66
2024/01/29 10:06:56;;;;;;;;;;;6.40;99.90;;;;;;4947792;28;20587;-66
2024/01/29 10:09:22;;;;;;;;;;;6.40;99.90;;;;;;4967295;28;20567;-67
2024/01/29 10:11:49;;;;;;;;;;;6.40;99.90;;;;;;4930456;28;19932;-66
2024/01/29 10:14:15;;;;;;;;;;;6.40;99.90;;;;;;4965672;28;19932;-66
2024/01/29 10:16:41;;;;;;;;;;;6.50;99.90;;;;;;4952567;28;19929;-67
2024/01/29 10:19:09;;;;;;;;;;;6.50;99.90;;;;;;4962686;28;19932;-66
2024/01/29 10:21:42;;;;;;;;;;;6.60;99.90;;;;;;4932524;28;20008;-67
2024/01/29 10:24:13;;;;;;;;;;;6.60;99.90;;;;;;4977631;28;20499;-67
2024/01/29 10:26:39;;;;;;;;;;;6.70;99.90;;;;;;4932507;28;21075;-68
2024/01/29 10:29:07;;;;;;;;;;;6.70;99.90;;;;;;4962208;28;19929;-67
2024/01/29 10:31:33;;;;;;;;;;;6.80;99.90;;;;;;4941725;28;21089;-67
2024/01/29 10:33:59;;;;;;;;;;;6.80;99.90;;;;;;4966030;28;19932;-66
2024/01/29 10:36:26;;;;;;;;;;;6.90;99.90;;;;;;4933242;28;20262;-68
2024/01/29 10:38:52;;;;;;;;;;;7.00;99.90;;;;;;4935536;28;19932;-67
2024/01/29 10:41:20;;;;;;;;;;;7.00;99.90;;;;;;4932684;28;20510;-68
2024/01/29 10:43:47;;;;;;;;;;;7.10;99.90;;;;;;4975169;28;19930;-67
2024/01/29 10:46:20;;;;;;;;;;;7.20;99.90;;;;;;4928969;28;21292;-67
2024/01/29 10:48:47;;;;;;;;;;;7.20;99.90;;;;;;4948915;28;20523;-67
2024/01/29 10:51:13;;;;;;;;;;;7.30;99.90;;;;;;4932461;28;19929;-67
2024/01/29 10:53:43;;;;;;;;;;;7.40;99.90;;;;;;4935463;28;19941;-67
2024/01/29 10:56:09;;;;;;;;;;;7.50;99.90;;;;;;4934937;28;19925;-66
2024/01/29 10:58:36;;;;;;;;;;;7.50;99.90;;;;;;4981646;28;20312;-66
2024/01/29 11:01:03;;;;;;;;;;;7.60;99.90;;;;;;4934129;28;19989;-67
2024/01/29 11:03:29;;;;;;;;;;;7.60;99.90;;;;;;4959107;28;19944;-67
2024/01/29 11:06:18;;;;;;;;;;;7.70;99.90;;;;;;4938765;28;20778;-66
2024/01/29 11:08:47;;;;;;;;;;;7.80;99.90;;;;;;4982419;28;19932;-66
2024/01/29 11:11:13;;;;;;;;;;;7.90;99.90;;;;;;4909996;28;19930;-67
2024/01/29 11:13:39;;;;;;;;;;;8.00;99.90;;;;;;4943646;28;20515;-68
2024/01/29 11:16:08;;;;;;;;;;;8.10;99.90;;;;;;4921336;28;19925;-67
2024/01/29 11:18:34;;;;;;;;;;;8.10;99.90;;;;;;4951411;28;20609;-67
2024/01/29 11:21:01;;;;;;;;;;;8.20;99.90;;;;;;4949684;28;19949;-67
2024/01/29 11:23:28;;;;;;;;;;;8.20;99.90;;;;;;4949516;28;19926;-67
2024/01/29 11:25:58;;;;;;;;;;;8.40;99.90;;;;;;4934322;28;19930;-69
2024/01/29 11:28:25;;;;;;;;;;;8.50;99.90;;;;;;4959422;28;19952;-68
2024/01/29 11:30:52;;;;;;;;;;;8.50;99.90;;;;;;4934088;28;19933;-70
2024/01/29 11:33:19;;;;;;;;;;;8.50;99.90;;;;;;4963482;28;19930;-68
2024/01/29 11:35:45;;;;;;;;;;;8.50;99.90;;;;;;4938787;28;19925;-66
2024/01/29 11:38:13;;;;;;;;;;;8.50;99.90;;;;;;4983236;28;19936;-66
2024/01/29 11:40:42;;;;;;;;;;;8.50;99.90;;;;;;4950620;28;19925;-66
2024/01/29 11:43:14;;;;;;;;;;;8.50;99.90;;;;;;4964589;28;19936;-65
2024/01/29 11:45:40;;;;;;;;;;;8.50;99.90;;;;;;4932086;28;19925;-66
2024/01/29 11:48:12;;;;;;;;;;;8.50;99.90;;;;;;4968456;28;20789;-66
2024/01/29 11:50:39;;;;;;;;;;;8.50;99.90;;;;;;4936278;28;19936;-66
2024/01/29 11:53:08;;;;;;;;;;;8.50;99.90;;;;;;4947617;28;19926;-66
2024/01/29 11:55:34;;;;;;;;;;;8.50;99.90;;;;;;4954962;28;19929;-68
2024/01/29 11:58:00;;;;;;;;;;;8.50;99.90;;;;;;4964929;28;19925;-66
2024/01/29 12:00:26;;;;;;;;;;;8.50;99.90;;;;;;4963090;28;19929;-66
2024/01/29 12:02:52;;;;;;;;;;;8.50;99.90;;;;;;4916164;28;19929;-67
2024/01/29 12:05:18;;;;;;;;;;;8.50;99.90;;;;;;4962987;28;20404;-67
2024/01/29 12:07:45;;;;;;;;;;;8.50;99.90;;;;;;4940033;28;19931;-66
2024/01/29 12:10:10;;;;;;;;;;;8.50;99.90;;;;;;4960397;28;19948;-66
2024/01/29 12:12:36;;;;;;;;;;;8.50;99.90;;;;;;4954298;28;19928;-66
2024/01/29 12:15:03;;;;;;;;;;;8.50;99.90;;;;;;4961890;28;20123;-66
2024/01/29 12:17:29;;;;;;;;;;;8.50;99.90;;;;;;4940641;28;19929;-67
2024/01/29 12:19:55;;;;;;;;;;;8.50;99.90;;;;;;4961274;28;19925;-67
2024/01/29 12:22:21;;;;;;;;;;;8.50;99.90;;;;;;4952453;28;20240;-67
2024/01/29 12:24:47;;;;;;;;;;;8.50;99.90;;;;;;4963202;28;19933;-67
2024/01/29 12:27:13;;;;;;;;;;;8.40;99.90;;;;;;4951503;28;20751;-66
2024/01/29 12:29:39;;;;;;;;;;;8.50;99.90;;;;;;4944636;28;21095;-67
2024/01/29 12:32:08;;;;;;;;;;;8.50;99.90;;;;;;4923885;28;19925;-66
2024/01/29 12:34:50;;;;;;;;;;;8.50;99.90;;;;;;4960129;28;20559;-66
2024/01/29 12:37:21;;;;;;;;;;;8.50;99.90;;;;;;4939065;28;19925;-67
2024/01/29 12:39:51;;;;;;;;;;;8.50;99.90;;;;;;4960554;28;19926;-66
2024/01/29 12:42:17;;;;;;;;;;;8.50;99.90;;;;;;4920943;28;19949;-67
2024/01/29 12:44:43;;;;;;;;;;;8.40;99.90;;;;;;4961141;28;20968;-66
2024/01/29 12:47:12;;;;;;;;;;;8.50;99.90;;;;;;4931721;28;19933;-66
2024/01/29 12:49:39;;;;;;;;;;;8.40;99.90;;;;;;4962133;28;19932;-66
2024/01/29 12:52:05;;;;;;;;;;;8.40;99.90;;;;;;4929684;28;19928;-66
2024/01/29 12:54:32;;;;;;;;;;;8.40;99.90;;;;;;4940940;28;20613;-66
2024/01/29 12:56:59;;;;;;;;;;;8.40;99.90;;;;;;4922524;28;19992;-66
2024/01/29 12:59:25;;;;;;;;;;;8.40;99.90;;;;;;4962398;28;19972;-66
2024/01/29 13:01:53;;;;;;;;;;;8.50;99.90;;;;;;4932291;28;19975;-67
2024/01/29 13:04:19;;;;;;;;;;;8.50;99.90;;;;;;4963018;28;19925;-66
2024/01/29 13:06:45;;;;;;;;;;;8.50;99.90;;;;;;4943718;28;20016;-66
2024/01/29 13:09:11;;;;;;;;;;;8.50;99.90;;;;;;4964448;28;20626;-67
2024/01/29 13:11:37;;;;;;;;;;;8.50;99.90;;;;;;4929629;28;19930;-67
2024/01/29 13:14:03;;;;;;;;;;;8.50;99.90;;;;;;4957614;28;19936;-70
2024/01/29 13:16:29;;;;;;;;;;;8.50;99.90;;;;;;4928744;28;20212;-72
2024/01/29 13:18:56;;;;;;;;;;;8.50;99.90;;;;;;4964806;28;20020;-72
2024/01/29 13:21:22;;;;;;;;;;;8.50;99.90;;;;;;4931873;28;19936;-71
2024/01/29 13:23:48;;;;;;;;;;;8.50;99.90;;;;;;4960446;28;20422;-72
2024/01/29 13:26:14;;;;;;;;;;;8.60;99.90;;;;;;4939346;28;19931;-70
2024/01/29 13:28:40;;;;;;;;;;;8.60;99.90;;;;;;4962650;28;19995;-71
2024/01/29 13:31:06;;;;;;;;;;;8.60;99.90;;;;;;4927373;28;20095;-70
2024/01/29 13:33:31;;;;;;;;;;;8.60;99.90;;;;;;4958437;28;19931;-71
2024/01/29 13:35:57;;;;;;;;;;;8.60;99.90;;;;;;4928192;28;20898;-71
2024/01/29 13:38:23;;;;;;;;;;;8.70;99.90;;;;;;4961065;28;19932;-71
2024/01/29 13:40:49;;;;;;;;;;;8.70;99.90;;;;;;4929667;28;20316;-71
2024/01/29 13:43:17;;;;;;;;;;;8.70;99.90;;;;;;4978184;28;20629;-72
2024/01/29 13:45:47;;;;;;;;;;;8.70;99.90;;;;;;4931306;28;19929;-71
2024/01/29 13:48:13;;;;;;;;;;;8.70;99.90;;;;;;4969441;28;20273;-71
2024/01/29 13:50:39;;;;;;;;;;;8.70;99.90;;;;;;4932612;28;19964;-71
2024/01/29 13:53:06;;;;;;;;;;;8.80;99.90;;;;;;4984023;28;20972;-71
2024/01/29 13:55:32;;;;;;;;;;;8.80;99.90;;;;;;4960701;28;19929;-73
2024/01/29 13:57:58;;;;;;;;;;;8.80;99.90;;;;;;4921992;28;19925;-71
2024/01/29 14:00:23;;;;;;;;;;;8.80;99.90;;;;;;4975296;28;19983;-71
2024/01/29 14:02:51;;;;;;;;;;;8.80;99.90;;;;;;4936691;28;19936;-71
2024/01/29 14:05:16;;;;;;;;;;;8.80;99.90;;;;;;4960528;28;20601;-71
2024/01/29 14:07:42;;;;;;;;;;;8.80;99.90;;;;;;4916363;28;20020;-70
2024/01/29 14:10:08;;;;;;;;;;;8.90;99.90;;;;;;4950369;28;21278;-71
2024/01/29 14:12:34;;;;;;;;;;;8.90;99.90;;;;;;4951020;28;19933;-69
2024/01/29 14:15:03;;;;;;;;;;;8.90;99.90;;;;;;4959229;28;20000;-71
2024/01/29 14:17:33;;;;;;;;;;;9.00;99.90;;;;;;4907067;28;19929;-71
2024/01/29 14:19:59;;;;;;;;;;;9.00;99.90;;;;;;4957070;28;20561;-71
2024/01/29 14:22:25;;;;;;;;;;;9.10;99.90;;;;;;4944810;28;20652;-70
2024/01/29 14:24:51;;;;;;;;;;;9.10;99.90;;;;;;4956595;28;20960;-71